createdAt,value
2023-01-19T00:00:27.279Z,9.33
2023-01-19T00:02:54.951Z,10.20
2023-01-19T00:05:21.887Z,9.37
2023-01-19T00:07:48.709Z,9.87
2023-01-19T00:10:15.491Z,9.00
2023-01-19T00:12:42.227Z,10.40
2023-01-19T00:15:09.397Z,11.00
2023-01-19T00:17:36.123Z,10.77
2023-01-19T00:20:03.831Z,10.07
2023-01-19T00:22:30.487Z,10.50
2023-01-19T00:24:57.167Z,11.00
2023-01-19T00:27:24.470Z,9.83
2023-01-19T00:29:51.014Z,9.60
2023-01-19T00:32:18.033Z,10.50
2023-01-19T00:34:49.312Z,10.53
2023-01-19T00:37:17.266Z,9.97
2023-01-19T00:39:43.895Z,11.20
2023-01-19T00:42:32.687Z,10.60
2023-01-19T00:44:59.289Z,10.23
2023-01-19T00:47:25.942Z,10.77
2023-01-19T00:49:52.507Z,10.43
2023-01-19T00:52:19.558Z,10.50
2023-01-19T00:54:46.106Z,10.40
2023-01-19T00:57:12.711Z,9.40
2023-01-19T00:59:39.359Z,10.03
2023-01-19T01:02:06.243Z,10.33
2023-01-19T01:04:33.215Z,10.33
2023-01-19T01:06:59.880Z,10.90
2023-01-19T01:09:26.531Z,10.20
2023-01-19T01:11:53.295Z,11.07
2023-01-19T01:14:19.864Z,10.40
2023-01-19T01:16:46.795Z,9.30
2023-01-19T01:19:13.407Z,10.23
2023-01-19T01:21:40.028Z,10.43
2023-01-19T01:24:07.117Z,9.47
2023-01-19T01:26:33.756Z,10.40
2023-01-19T01:29:00.337Z,9.80
2023-01-19T01:31:27.207Z,10.33
2023-01-19T01:33:53.810Z,9.83
2023-01-19T01:36:21.570Z,9.50
2023-01-19T01:38:48.329Z,10.90
2023-01-19T01:41:15.059Z,10.00
2023-01-19T01:43:44.220Z,10.57
2023-01-19T01:46:11.738Z,10.23
2023-01-19T01:48:40.324Z,10.10
2023-01-19T01:51:24.690Z,11.17
2023-01-19T01:54:18.961Z,9.93
2023-01-19T01:56:48.790Z,9.20
2023-01-19T01:59:29.327Z,10.20
2023-01-19T02:02:17.310Z,10.60
2023-01-19T02:04:50.371Z,11.53
2023-01-19T02:07:48.364Z,9.77
2023-01-19T02:10:33.684Z,9.57
2023-01-19T02:13:19.209Z,10.10
2023-01-19T02:15:46.803Z,11.00
2023-01-19T02:18:16.058Z,10.70
2023-01-19T02:20:54.922Z,11.17
2023-01-19T02:23:41.181Z,10.00
2023-01-19T02:26:09.975Z,10.60
2023-01-19T02:28:43.240Z,10.60
2023-01-19T02:31:10.543Z,11.00
2023-01-19T02:33:37.555Z,10.60
2023-01-19T02:36:08.007Z,10.20
2023-01-19T02:38:35.852Z,10.70
2023-01-19T02:41:06.237Z,9.77
2023-01-19T02:43:33.878Z,10.50
2023-01-19T02:46:00.553Z,10.30
2023-01-19T02:48:27.165Z,10.63
2023-01-19T02:51:00.793Z,9.77
2023-01-19T02:53:45.676Z,10.37
2023-01-19T02:56:15.520Z,10.23
2023-01-19T02:58:51.232Z,8.60
2023-01-19T03:01:41.215Z,10.07
2023-01-19T03:04:54.663Z,9.47
2023-01-19T03:07:39.793Z,9.67
2023-01-19T03:10:38.688Z,9.50
2023-01-19T03:13:35.343Z,10.00
2023-01-19T03:16:06.690Z,10.60
2023-01-19T03:18:37.063Z,9.87
2023-01-19T03:21:07.153Z,9.77
2023-01-19T03:23:36.935Z,9.70
2023-01-19T03:26:06.893Z,10.13
2023-01-19T03:28:36.040Z,10.20
2023-01-19T03:31:10.503Z,9.60
2023-01-19T03:33:40.839Z,10.07
2023-01-19T03:36:12.820Z,8.93
2023-01-19T03:38:42.501Z,10.77
2023-01-19T03:41:13.500Z,9.60
2023-01-19T03:43:41.150Z,9.60
2023-01-19T03:46:11.247Z,9.50
2023-01-19T03:48:38.643Z,8.87
2023-01-19T03:51:07.881Z,9.80
2023-01-19T03:53:34.752Z,9.23
2023-01-19T03:56:01.325Z,9.93
2023-01-19T03:58:28.343Z,10.03
2023-01-19T04:00:54.946Z,8.17
2023-01-19T04:03:21.613Z,9.10
2023-01-19T04:05:48.226Z,9.73
2023-01-19T04:08:14.968Z,9.40
2023-01-19T04:10:41.513Z,9.30
2023-01-19T04:13:08.068Z,9.40
2023-01-19T04:15:34.689Z,10.13
2023-01-19T04:18:01.398Z,10.63
2023-01-19T04:20:28.851Z,10.30
2023-01-19T04:22:59.042Z,9.50
2023-01-19T04:25:25.740Z,9.87
2023-01-19T04:27:53.335Z,10.20
2023-01-19T04:30:20.495Z,9.67
2023-01-19T04:32:47.175Z,10.60
2023-01-19T04:35:13.777Z,10.90
2023-01-19T04:37:40.411Z,10.30
2023-01-19T04:40:07.834Z,9.57
2023-01-19T04:42:34.431Z,10.37
2023-01-19T04:45:00.969Z,9.20
2023-01-19T04:47:27.611Z,9.70
2023-01-19T04:49:54.175Z,8.73
2023-01-19T04:52:20.743Z,9.40
2023-01-19T04:54:47.659Z,9.03
2023-01-19T04:57:14.257Z,9.20
2023-01-19T04:59:40.842Z,9.03
2023-01-19T05:02:07.553Z,9.30
2023-01-19T05:04:34.194Z,8.53
2023-01-19T05:07:00.810Z,9.40
2023-01-19T05:09:27.352Z,8.67
2023-01-19T05:11:53.951Z,9.83
2023-01-19T05:14:20.812Z,9.57
2023-01-19T05:16:47.498Z,9.87
2023-01-19T05:19:14.094Z,10.67
2023-01-19T05:21:40.655Z,9.80
2023-01-19T05:24:07.674Z,10.77
2023-01-19T05:26:34.233Z,10.63
2023-01-19T05:29:00.853Z,10.97
2023-01-19T05:31:27.529Z,9.30
2023-01-19T05:33:54.161Z,9.30
2023-01-19T05:36:20.718Z,9.93
2023-01-19T05:38:47.246Z,8.20
2023-01-19T05:41:14.159Z,9.00
2023-01-19T05:43:40.733Z,9.00
2023-01-19T05:46:07.321Z,9.50
2023-01-19T05:48:34.004Z,8.83
2023-01-19T05:51:01.338Z,8.97
2023-01-19T05:53:28.872Z,8.67
2023-01-19T05:56:05.483Z,9.17
2023-01-19T05:58:34.277Z,9.00
2023-01-19T06:01:05.416Z,10.17
2023-01-19T06:03:34.748Z,9.30
2023-01-19T06:06:01.890Z,8.53
2023-01-19T06:08:28.744Z,8.70
2023-01-19T06:10:55.308Z,9.63
2023-01-19T06:13:21.906Z,8.57
2023-01-19T06:15:48.517Z,8.13
2023-01-19T06:18:24.208Z,8.60
2023-01-19T06:20:52.052Z,8.10
2023-01-19T06:23:18.627Z,8.60
2023-01-19T06:25:45.223Z,8.73
2023-01-19T06:28:11.752Z,7.20
2023-01-19T06:30:38.367Z,7.50
2023-01-19T06:33:04.943Z,7.07
2023-01-19T06:35:31.590Z,7.77
2023-01-19T06:37:58.197Z,7.70
2023-01-19T06:40:25.014Z,7.93
2023-01-19T06:42:58.823Z,7.77
2023-01-19T06:45:25.940Z,6.67
2023-01-19T06:47:52.494Z,7.30
2023-01-19T06:50:19.059Z,6.90
2023-01-19T06:52:45.600Z,7.40
2023-01-19T06:55:13.638Z,7.30
2023-01-19T06:57:40.794Z,6.40
2023-01-19T07:00:08.900Z,6.70
2023-01-19T07:02:35.989Z,6.20
2023-01-19T07:05:02.718Z,5.80
2023-01-19T07:07:29.453Z,6.20
2023-01-19T07:09:56.021Z,6.10
2023-01-19T07:12:23.092Z,6.80
2023-01-19T07:14:49.854Z,7.00
2023-01-19T07:17:16.450Z,5.90
2023-01-19T07:19:43.295Z,6.73
2023-01-19T07:22:10.006Z,7.40
2023-01-19T07:24:37.916Z,6.33
2023-01-19T07:27:05.329Z,7.03
2023-01-19T07:29:31.945Z,6.87
2023-01-19T07:31:58.493Z,6.80
2023-01-19T07:34:25.216Z,7.40
2023-01-19T07:36:51.790Z,7.40
2023-01-19T07:39:18.402Z,7.93
2023-01-19T07:41:44.960Z,7.40
2023-01-19T07:44:11.499Z,8.27
2023-01-19T07:46:38.057Z,6.90
2023-01-19T07:49:04.670Z,7.30
2023-01-19T07:51:31.285Z,7.57
2023-01-19T07:53:58.299Z,7.27
2023-01-19T07:56:27.582Z,6.67
2023-01-19T07:58:54.182Z,8.07
2023-01-19T08:01:20.840Z,7.00
2023-01-19T08:03:50.880Z,7.87
2023-01-19T08:06:26.041Z,6.97
2023-01-19T08:08:53.079Z,7.07
2023-01-19T08:11:19.636Z,7.00
2023-01-19T08:13:46.281Z,6.90
2023-01-19T08:16:19.277Z,7.53
2023-01-19T08:18:46.364Z,8.10
2023-01-19T08:21:13.114Z,7.37
2023-01-19T08:23:40.091Z,7.40
2023-01-19T08:26:29.807Z,7.20
2023-01-19T08:28:59.096Z,7.57
2023-01-19T08:31:26.221Z,7.33
2023-01-19T08:33:53.018Z,7.43
2023-01-19T08:36:20.325Z,7.57
2023-01-19T08:38:47.583Z,8.03
2023-01-19T08:41:16.354Z,8.13
2023-01-19T08:43:44.509Z,8.00
2023-01-19T08:46:12.248Z,8.00
2023-01-19T08:48:39.987Z,7.97
2023-01-19T08:51:06.738Z,7.73
2023-01-19T08:53:34.055Z,7.97
2023-01-19T08:56:01.878Z,9.40
2023-01-19T08:58:28.686Z,7.80
2023-01-19T09:00:55.966Z,9.33
2023-01-19T09:03:22.914Z,10.50
2023-01-19T09:05:49.675Z,10.27
2023-01-19T09:08:16.360Z,9.83
2023-01-19T09:10:48.513Z,9.67
2023-01-19T09:13:15.789Z,10.40
2023-01-19T09:15:43.458Z,10.17
2023-01-19T09:18:19.177Z,11.20
2023-01-19T09:20:47.907Z,9.67
2023-01-19T09:23:17.459Z,11.40
2023-01-19T09:25:45.969Z,10.40
2023-01-19T09:28:14.984Z,11.93
2023-01-19T09:30:43.167Z,11.20
2023-01-19T09:33:12.323Z,11.60
2023-01-19T09:35:39.681Z,11.53
2023-01-19T09:38:08.771Z,12.37
2023-01-19T09:40:42.120Z,12.20
2023-01-19T09:43:30.597Z,11.70
2023-01-19T09:46:12.872Z,12.43
2023-01-19T09:48:53.016Z,12.47
2023-01-19T09:51:28.998Z,13.53
2023-01-19T09:54:15.667Z,13.83
2023-01-19T09:56:44.176Z,12.90
2023-01-19T09:59:31.383Z,14.13
2023-01-19T10:02:35.543Z,12.33
2023-01-19T10:05:22.234Z,13.30
2023-01-19T10:08:06.087Z,13.40
2023-01-19T10:10:34.229Z,14.30
2023-01-19T10:13:26.015Z,13.90
2023-01-19T10:16:22.258Z,14.53
2023-01-19T10:18:51.926Z,13.83
2023-01-19T10:21:28.988Z,13.93
2023-01-19T10:24:01.521Z,14.37
2023-01-19T10:26:52.731Z,12.73
2023-01-19T10:29:34.363Z,14.73
2023-01-19T10:32:26.030Z,15.07
2023-01-19T10:34:53.973Z,13.53
2023-01-19T10:37:34.150Z,14.07
2023-01-19T10:40:09.886Z,13.30
2023-01-19T10:42:39.167Z,14.37
2023-01-19T10:45:14.602Z,14.27
2023-01-19T10:47:42.388Z,14.00
2023-01-19T10:50:24.292Z,13.83
2023-01-19T10:52:53.806Z,13.67
2023-01-19T10:55:30.633Z,13.43
2023-01-19T10:57:58.731Z,13.00
2023-01-19T11:00:40.468Z,15.40
2023-01-19T11:03:23.794Z,15.30
2023-01-19T11:05:50.967Z,14.10
2023-01-19T11:08:30.185Z,13.00
2023-01-19T11:11:04.439Z,14.70
2023-01-19T11:13:32.216Z,12.67
2023-01-19T11:16:05.141Z,13.90
2023-01-19T11:18:37.770Z,13.03
2023-01-19T11:21:16.450Z,12.87
2023-01-19T11:23:52.674Z,13.00
2023-01-19T11:26:47.937Z,12.87
2023-01-19T11:29:21.343Z,12.90
2023-01-19T11:31:49.205Z,11.90
2023-01-19T11:34:37.392Z,12.13
2023-01-19T11:37:26.203Z,11.90
2023-01-19T11:39:58.594Z,11.57
2023-01-19T11:42:26.064Z,11.07
2023-01-19T11:45:12.427Z,11.87
2023-01-19T11:47:50.288Z,10.17
2023-01-19T11:50:33.540Z,10.93
2023-01-19T11:53:18.809Z,10.80
2023-01-19T11:55:59.539Z,11.33
2023-01-19T11:58:26.786Z,11.50
2023-01-19T12:01:05.352Z,11.93
2023-01-19T12:04:05.258Z,11.37
2023-01-19T12:06:35.787Z,12.40
2023-01-19T12:09:21.067Z,10.40
2023-01-19T12:12:07.537Z,11.43
2023-01-19T12:14:41.034Z,11.07
2023-01-19T12:17:15.068Z,12.97
2023-01-19T12:19:55.267Z,11.90
2023-01-19T12:22:24.005Z,11.07
2023-01-19T12:25:33.532Z,11.97
2023-01-19T12:28:00.398Z,11.83
2023-01-19T12:30:29.327Z,10.63
2023-01-19T12:33:37.668Z,11.40
2023-01-19T12:36:10.295Z,12.80
2023-01-19T12:38:44.372Z,11.13
2023-01-19T12:41:30.729Z,13.20
2023-01-19T12:44:13.939Z,12.30
2023-01-19T12:47:03.299Z,12.33
2023-01-19T12:49:33.983Z,12.70
2023-01-19T12:52:22.272Z,12.40
2023-01-19T12:55:14.688Z,12.13
2023-01-19T12:57:50.142Z,14.10
2023-01-19T13:00:22.847Z,13.10
2023-01-19T13:02:56.054Z,12.50
2023-01-19T13:05:32.829Z,12.70
2023-01-19T13:08:02.794Z,12.23
2023-01-19T13:11:00.269Z,12.70
2023-01-19T13:13:31.123Z,13.03
2023-01-19T13:16:21.256Z,13.07
2023-01-19T13:18:55.860Z,13.00
2023-01-19T13:21:39.351Z,12.23
2023-01-19T13:24:08.256Z,12.90
2023-01-19T13:26:35.779Z,11.20
2023-01-19T13:29:15.351Z,11.90
2023-01-19T13:31:44.631Z,12.27
2023-01-19T13:34:20.943Z,12.90
2023-01-19T13:36:52.749Z,11.23
2023-01-19T13:39:28.617Z,11.63
2023-01-19T13:42:02.132Z,11.10
2023-01-19T13:44:34.975Z,12.60
2023-01-19T13:47:04.490Z,11.93
2023-01-19T13:49:35.748Z,12.67
2023-01-19T13:52:07.609Z,12.90
2023-01-19T13:54:34.222Z,12.30
2023-01-19T13:57:00.872Z,12.40
2023-01-19T13:59:27.447Z,12.23
2023-01-19T14:01:54.274Z,12.17
2023-01-19T14:04:30.217Z,10.60
2023-01-19T14:07:02.364Z,11.43
2023-01-19T14:09:29.271Z,12.33
2023-01-19T14:12:16.082Z,11.63
2023-01-19T14:14:44.244Z,10.93
2023-01-19T14:17:26.210Z,11.53
2023-01-19T14:19:58.006Z,11.70
2023-01-19T14:22:42.769Z,12.67
2023-01-19T14:25:35.095Z,14.17
2023-01-19T14:28:43.945Z,11.97
2023-01-19T14:31:24.059Z,13.80
2023-01-19T14:33:53.526Z,13.30
2023-01-19T14:36:36.040Z,13.30
2023-01-19T14:39:03.991Z,12.93
2023-01-19T14:41:44.578Z,13.53
2023-01-19T14:44:16.462Z,13.73
2023-01-19T14:46:47.807Z,13.17
2023-01-19T14:49:21.681Z,15.73
2023-01-19T14:51:49.667Z,12.77
2023-01-19T14:54:23.372Z,13.17
2023-01-19T14:56:53.521Z,14.80
2023-01-19T14:59:20.182Z,14.40
2023-01-19T15:01:46.899Z,12.93
2023-01-19T15:04:13.511Z,11.50
2023-01-19T15:06:43.070Z,11.70
2023-01-19T15:09:14.779Z,12.43
2023-01-19T15:11:42.005Z,12.93
2023-01-19T15:14:13.536Z,12.90
2023-01-19T15:16:40.864Z,12.00
2023-01-19T15:19:11.411Z,13.40
2023-01-19T15:21:41.849Z,12.97
2023-01-19T15:24:10.461Z,12.93
2023-01-19T15:26:42.162Z,13.40
2023-01-19T15:29:24.605Z,12.30
2023-01-19T15:31:51.669Z,12.37
2023-01-19T15:34:18.394Z,14.33
2023-01-19T15:36:45.053Z,13.70
2023-01-19T15:39:11.764Z,12.63
2023-01-19T15:41:39.770Z,12.83
2023-01-19T15:44:08.391Z,12.43
2023-01-19T15:46:35.043Z,12.30
2023-01-19T15:49:01.670Z,12.50
2023-01-19T15:51:28.563Z,11.13
2023-01-19T15:53:55.858Z,12.17
2023-01-19T15:56:25.035Z,11.37
2023-01-19T15:58:53.329Z,11.90
2023-01-19T16:01:22.504Z,11.73
2023-01-19T16:03:50.498Z,12.17
2023-01-19T16:06:17.846Z,13.10
2023-01-19T16:08:44.842Z,13.27
2023-01-19T16:11:14.441Z,12.37
2023-01-19T16:13:43.937Z,14.40
2023-01-19T16:16:21.914Z,12.50
2023-01-19T16:18:48.720Z,14.97
2023-01-19T16:21:15.496Z,15.60
2023-01-19T16:23:42.157Z,15.30
2023-01-19T16:26:25.973Z,18.47
2023-01-19T16:28:57.793Z,17.57
2023-01-19T16:31:24.589Z,22.60
2023-01-19T16:33:51.238Z,23.00
2023-01-19T16:36:29.553Z,22.43
2023-01-19T16:39:00.172Z,18.33
2023-01-19T16:41:27.290Z,15.50
2023-01-19T16:43:55.603Z,16.30
2023-01-19T16:46:35.244Z,15.90
2023-01-19T16:49:04.318Z,14.63
2023-01-19T16:51:31.775Z,16.77
2023-01-19T16:53:58.487Z,16.43
2023-01-19T16:56:25.154Z,16.07
2023-01-19T16:58:56.386Z,15.60
2023-01-19T17:01:24.729Z,18.00
2023-01-19T17:03:51.954Z,15.70
2023-01-19T17:06:20.334Z,17.07
2023-01-19T17:08:47.393Z,16.10
2023-01-19T17:11:20.742Z,15.30
2023-01-19T17:13:48.548Z,15.40
2023-01-19T17:16:15.404Z,15.97
2023-01-19T17:18:42.355Z,16.73
2023-01-19T17:21:09.946Z,17.00
2023-01-19T17:23:37.387Z,17.10
2023-01-19T17:26:05.278Z,16.73
2023-01-19T17:28:31.941Z,16.93
2023-01-19T17:31:05.782Z,18.10
2023-01-19T17:33:32.726Z,18.90
2023-01-19T17:36:08.300Z,19.60
2023-01-19T17:38:35.811Z,20.70
2023-01-19T17:41:02.520Z,19.17
2023-01-19T17:43:29.105Z,20.33
2023-01-19T17:45:55.715Z,20.10
2023-01-19T17:48:22.500Z,17.53
2023-01-19T17:50:49.091Z,18.33
2023-01-19T17:53:15.688Z,17.93
2023-01-19T17:55:42.221Z,19.77
2023-01-19T17:58:08.794Z,23.10
2023-01-19T18:00:35.456Z,25.80
2023-01-19T18:03:02.183Z,23.67
2023-01-19T18:05:28.780Z,20.17
2023-01-19T18:07:55.411Z,20.63
2023-01-19T18:10:22.200Z,16.33
2023-01-19T18:12:48.800Z,17.00
2023-01-19T18:15:16.893Z,15.87
2023-01-19T18:17:43.753Z,17.47
2023-01-19T18:20:11.254Z,15.27
2023-01-19T18:22:38.115Z,16.33
2023-01-19T18:25:04.998Z,15.87
2023-01-19T18:27:31.609Z,15.67
2023-01-19T18:29:58.183Z,17.53
2023-01-19T18:32:27.125Z,20.30
2023-01-19T18:34:54.132Z,19.07
2023-01-19T18:37:20.792Z,18.43
2023-01-19T18:39:47.498Z,19.53
2023-01-19T18:42:14.253Z,19.47
2023-01-19T18:44:41.164Z,17.63
2023-01-19T18:47:07.718Z,19.30
2023-01-19T18:49:34.297Z,17.47
2023-01-19T18:52:00.930Z,17.77
2023-01-19T18:54:27.519Z,17.33
2023-01-19T18:56:54.102Z,16.80
2023-01-19T18:59:20.709Z,17.00
2023-01-19T19:01:47.762Z,16.27
2023-01-19T19:04:15.766Z,17.63
2023-01-19T19:06:51.595Z,17.40
2023-01-19T19:09:19.787Z,17.43
2023-01-19T19:11:46.765Z,16.20
2023-01-19T19:14:13.401Z,17.40
2023-01-19T19:16:40.377Z,18.30
2023-01-19T19:19:08.204Z,16.40
2023-01-19T19:21:36.527Z,17.03
2023-01-19T19:24:03.159Z,16.80
2023-01-19T19:26:31.371Z,16.80
2023-01-19T19:28:58.251Z,17.90
2023-01-19T19:31:33.789Z,18.20
2023-01-19T19:34:01.069Z,17.97
2023-01-19T19:36:36.570Z,20.10
2023-01-19T19:39:03.252Z,19.43
2023-01-19T19:41:33.809Z,21.73
2023-01-19T19:44:00.364Z,20.83
2023-01-19T19:46:27.154Z,21.30
2023-01-19T19:48:54.369Z,23.63
2023-01-19T19:51:26.810Z,20.93
2023-01-19T19:53:55.867Z,20.07
2023-01-19T19:56:24.055Z,20.23
2023-01-19T19:58:51.652Z,18.37
2023-01-19T20:01:27.211Z,20.20
2023-01-19T20:03:55.021Z,21.70
2023-01-19T20:06:24.737Z,19.13
2023-01-19T20:08:53.771Z,19.70
2023-01-19T20:11:27.841Z,19.40
2023-01-19T20:13:54.879Z,18.77
2023-01-19T20:16:23.135Z,18.17
2023-01-19T20:18:53.790Z,16.20
2023-01-19T20:21:23.460Z,18.70
2023-01-19T20:23:50.547Z,19.70
2023-01-19T20:26:20.531Z,18.83
2023-01-19T20:28:47.836Z,18.07
2023-01-19T20:31:23.890Z,20.37
2023-01-19T20:33:51.597Z,20.20
2023-01-19T20:36:18.746Z,19.60
2023-01-19T20:38:45.513Z,18.10
2023-01-19T20:41:13.448Z,20.63
2023-01-19T20:43:43.071Z,20.80
2023-01-19T20:46:10.218Z,22.80
2023-01-19T20:48:38.987Z,24.33
2023-01-19T20:51:11.245Z,27.67
2023-01-19T20:53:39.591Z,29.43
2023-01-19T20:56:10.866Z,28.67
2023-01-19T20:58:37.710Z,26.20
2023-01-19T21:01:14.724Z,22.90
2023-01-19T21:03:42.144Z,19.10
2023-01-19T21:06:09.480Z,20.77
2023-01-19T21:08:36.601Z,20.83
2023-01-19T21:11:03.568Z,18.40
2023-01-19T21:13:30.632Z,19.87
2023-01-19T21:15:57.502Z,19.70
2023-01-19T21:18:24.914Z,20.00
2023-01-19T21:21:10.673Z,19.37
2023-01-19T21:23:41.792Z,19.07
2023-01-19T21:26:08.500Z,20.40
2023-01-19T21:28:35.054Z,18.20
2023-01-19T21:31:12.899Z,21.43
2023-01-19T21:33:40.384Z,22.10
2023-01-19T21:36:08.174Z,22.63
2023-01-19T21:38:36.319Z,22.70
2023-01-19T21:41:08.086Z,21.47
2023-01-19T21:43:36.616Z,23.87
2023-01-19T21:46:29.127Z,24.83
2023-01-19T21:48:57.307Z,21.40
2023-01-19T21:51:24.046Z,18.50
2023-01-19T21:53:59.572Z,16.63
2023-01-19T21:56:30.723Z,16.50
2023-01-19T21:58:58.423Z,17.87
2023-01-19T22:01:25.330Z,16.50
2023-01-19T22:03:56.598Z,17.27
2023-01-19T22:06:24.553Z,17.00
2023-01-19T22:08:51.394Z,17.40
2023-01-19T22:11:20.228Z,16.63
2023-01-19T22:13:47.250Z,18.53
2023-01-19T22:16:18.885Z,18.47
2023-01-19T22:18:49.862Z,18.67
2023-01-19T22:21:19.294Z,18.00
2023-01-19T22:23:50.413Z,17.87
2023-01-19T22:26:17.031Z,18.33
2023-01-19T22:28:43.679Z,16.17
2023-01-19T22:31:17.881Z,17.30
2023-01-19T22:33:45.108Z,16.63
2023-01-19T22:36:14.702Z,16.60
2023-01-19T22:38:42.289Z,16.60
2023-01-19T22:41:18.085Z,18.23
2023-01-19T22:43:44.958Z,16.87
2023-01-19T22:46:12.430Z,16.73
2023-01-19T22:48:40.407Z,18.27
2023-01-19T22:51:07.243Z,18.87
2023-01-19T22:53:33.956Z,16.90
2023-01-19T22:56:00.631Z,17.83
2023-01-19T22:58:27.224Z,16.67
2023-01-19T23:00:53.934Z,16.93
2023-01-19T23:03:20.638Z,19.30
2023-01-19T23:05:47.246Z,18.90
2023-01-19T23:08:13.967Z,17.83
2023-01-19T23:10:40.614Z,18.00
2023-01-19T23:13:07.198Z,16.40
2023-01-19T23:15:34.809Z,17.43
2023-01-19T23:18:01.535Z,16.20
2023-01-19T23:20:28.269Z,17.70
2023-01-19T23:22:54.845Z,18.63
2023-01-19T23:25:21.646Z,18.53
2023-01-19T23:27:48.322Z,19.40
2023-01-19T23:30:15.019Z,19.03
2023-01-19T23:32:47.029Z,16.70
2023-01-19T23:35:14.554Z,17.20
2023-01-19T23:37:41.797Z,17.17
2023-01-19T23:40:10.257Z,16.70
2023-01-19T23:42:37.055Z,18.97
2023-01-19T23:45:04.163Z,18.43
2023-01-19T23:47:32.611Z,17.97
2023-01-19T23:49:59.168Z,17.70
2023-01-19T23:52:25.771Z,18.17
2023-01-19T23:54:52.335Z,19.10
2023-01-19T23:57:18.898Z,19.63
2023-01-19T23:59:47.023Z,18.93
